TJBQ/BQN METAR and TAF weather

Enter ICAO airport designator
Station Type Date Time Source
TJBQ METAR 2022/01/23 10:50 UTC NOAA

TJBQ 231050Z 11007KT 10SM CLR 21/19 A3002


Station Type Date Time Source
TJBQ Decoded METAR 2022/01/23 10:50 UTC NOAA

Aquadilla, Rafael Hernandez Airport, PR, United States (TJBQ) 18-30N 067-08W 69M
Jan 23, 2022 - 05:50 AM EST / 2022.01.23 1050 UTC
Wind: from the ESE (110 degrees) at 8 MPH (7 KT):0
Visibility: 10 mile(s):0
Sky conditions: clear
Temperature: 69 F (21 C)
Dew Point: 66 F (19 C)
Relative Humidity: 88%
Pressure (altimeter): 30.02 in. Hg (1016 hPa)
ob: TJBQ 231050Z 11007KT 10SM CLR 21/19 A3002
cycle: 11

Station Type Date Time Source
TJBQ TAF 2022/01/23 06:24 UTC NOAA

TAF TJBQ 230520Z 2306/2406 12004KT P6SM VCSH FEW025
FM231400 09014KT P6SM SCT025
FM231700 07014KT P6SM VCSH SCT025 SCT040
FM232300 10005KT P6SM FEW025
AMD NOT SKED TIL 231100

Example: see airport list